Time;durP1;ratioP1;P1;durP2;ratioP2;P2;SDS_P1;SDS_P2;PMS_P1;PMS_P2;Temp;Humidity;BMP_temperature;BMP_pressure;BME280_temperature;BME280_humidity;BME280_pressure;Samples;Min_cycle;Max_cycle;Signal;HPM_P1;HPM_P2
2022/11/07 00:01:52;;;;;;;7.60;2.97;;;12.10;99.90;;;;;;5025330;28;20166;-84
2022/11/07 00:04:27;;;;;;;6.50;3.03;;;12.20;99.90;;;;;;5025023;28;20635;-84
2022/11/07 00:06:58;;;;;;;6.87;3.17;;;12.30;99.90;;;;;;5027649;28;20171;-86
2022/11/07 00:09:25;;;;;;;7.30;3.33;;;12.20;99.90;;;;;;5027843;28;20202;-81
2022/11/07 00:11:52;;;;;;;8.43;3.40;;;12.20;99.90;;;;;;5030118;28;20240;-83
2022/11/07 00:14:18;;;;;;;9.60;3.50;;;12.20;99.90;;;;;;5026030;28;20182;-83
2022/11/07 00:16:47;;;;;;;9.77;3.40;;;12.20;99.90;;;;;;5029679;28;20193;-84
2022/11/07 00:19:16;;;;;;;7.90;3.00;;;12.20;99.90;;;;;;5027975;28;20638;-81
2022/11/07 00:21:50;;;;;;;7.67;3.23;;;12.10;99.90;;;;;;5028101;28;20170;-85
2022/11/07 00:24:16;;;;;;;7.37;3.47;;;12.20;99.90;;;;;;5029586;28;20155;-81
2022/11/07 00:26:44;;;;;;;9.83;3.50;;;12.20;99.90;;;;;;5036695;28;20163;-81
2022/11/07 00:29:14;;;;;;;7.13;3.17;;;12.20;99.90;;;;;;5036199;28;20215;-86
2022/11/07 00:31:41;;;;;;;11.17;3.17;;;12.20;99.90;;;;;;5033122;28;20165;-81
2022/11/07 00:34:07;;;;;;;10.23;3.30;;;12.20;99.90;;;;;;5030800;28;20194;-85
2022/11/07 00:36:36;;;;;;;8.57;3.23;;;12.30;99.90;;;;;;5031592;28;20170;-83
2022/11/07 00:39:10;;;;;;;8.93;3.53;;;12.30;99.90;;;;;;5030807;28;20218;-80
2022/11/07 00:41:39;;;;;;;8.60;4.17;;;12.40;99.90;;;;;;5024794;28;20162;-83
2022/11/07 00:44:29;;;;;;;9.43;3.43;;;12.30;99.90;;;;;;5027493;28;20219;-81
2022/11/07 00:47:01;;;;;;;12.37;4.07;;;12.30;99.90;;;;;;5025567;28;20174;-83
2022/11/07 00:49:27;;;;;;;9.83;3.53;;;12.40;99.90;;;;;;5027048;28;20212;-82
2022/11/07 00:51:56;;;;;;;8.40;3.30;;;12.30;99.90;;;;;;5025331;28;20172;-80
2022/11/07 00:54:22;;;;;;;8.87;3.23;;;12.40;99.90;;;;;;5032713;28;20199;-82
2022/11/07 00:56:47;;;;;;;9.17;3.67;;;12.30;99.90;;;;;;5026576;28;20226;-84
2022/11/07 00:59:19;;;;;;;12.37;3.13;;;12.40;99.90;;;;;;5025604;28;20170;-81
2022/11/07 01:01:46;;;;;;;12.20;3.10;;;12.50;99.90;;;;;;5026766;28;20206;-79
2022/11/07 01:07:01;;;;;;;9.37;2.97;;;12.40;99.90;;;;;;5023660;28;20185;-81
2022/11/07 01:09:29;;;;;;;8.37;3.10;;;12.50;99.90;;;;;;5005470;28;20218;-81
2022/11/07 01:12:00;;;;;;;10.10;2.97;;;12.50;99.90;;;;;;5023683;28;20179;-87
2022/11/07 01:14:27;;;;;;;6.83;2.40;;;12.50;99.90;;;;;;5029189;28;20163;-81
2022/11/07 01:17:22;;;;;;;13.20;3.20;;;12.60;99.90;;;;;;5030344;28;20199;-82
2022/11/07 01:20:13;;;;;;;11.27;3.13;;;12.60;99.90;;;;;;5028114;28;20186;-83
2022/11/07 01:22:42;;;;;;;9.70;2.90;;;12.60;99.90;;;;;;5030278;28;20203;-82
2022/11/07 01:25:39;;;;;;;10.47;3.03;;;12.70;99.90;;;;;;5031181;28;20201;-84
2022/11/07 01:28:08;;;;;;;9.37;3.00;;;12.70;99.90;;;;;;5032887;28;20251;-85
2022/11/07 01:30:42;;;;;;;11.70;2.87;;;12.70;99.90;;;;;;5026794;28;20221;-86
2022/11/07 01:33:09;;;;;;;13.63;2.97;;;12.70;99.90;;;;;;5029967;28;20263;-83
2022/11/07 01:35:39;;;;;;;10.50;2.80;;;12.80;99.90;;;;;;5026695;28;20585;-87
2022/11/07 01:38:11;;;;;;;8.00;2.67;;;12.90;99.90;;;;;;5030851;28;20571;-85
2022/11/07 01:43:51;;;;;;;8.33;2.50;;;12.70;99.90;;;;;;5033841;28;20173;-86
2022/11/07 01:46:19;;;;;;;9.23;2.57;;;12.80;99.90;;;;;;4995852;28;20193;-87
2022/11/07 01:48:55;;;;;;;9.93;2.87;;;12.80;99.90;;;;;;5011583;28;20573;-87
2022/11/07 01:51:22;;;;;;;11.40;3.47;;;12.70;99.90;;;;;;4996860;28;20194;-85
2022/11/07 01:53:50;;;;;;;16.67;3.70;;;12.70;99.90;;;;;;4996545;28;20624;-85
2022/11/07 01:56:19;;;;;;;11.07;2.80;;;12.70;99.90;;;;;;4995989;28;20287;-84
2022/11/07 01:58:46;;;;;;;17.37;3.67;;;12.70;99.90;;;;;;5011378;28;20175;-80
2022/11/07 02:01:12;;;;;;;11.83;3.10;;;12.70;99.90;;;;;;5016042;28;20161;-83
2022/11/07 02:03:38;;;;;;;11.83;3.10;;;12.80;99.90;;;;;;5032919;28;20181;-82
2022/11/07 02:06:16;;;;;;;11.27;2.90;;;12.70;99.90;;;;;;5004067;28;20255;-85
2022/11/07 02:08:47;;;;;;;11.40;3.00;;;12.70;99.90;;;;;;5015884;28;20176;-86
2022/11/07 02:11:38;;;;;;;11.60;3.10;;;12.90;99.90;;;;;;4996239;28;20195;-84
2022/11/07 02:14:04;;;;;;;11.90;2.77;;;12.80;99.90;;;;;;4995265;28;20631;-84
2022/11/07 02:16:33;;;;;;;13.17;2.80;;;12.80;99.90;;;;;;4995602;28;20174;-86
2022/11/07 02:19:00;;;;;;;14.83;3.30;;;12.80;99.90;;;;;;4995133;28;20183;-85
2022/11/07 02:21:49;;;;;;;12.90;3.17;;;12.80;99.90;;;;;;4995437;28;20169;-84
2022/11/07 02:24:37;;;;;;;10.43;2.90;;;12.70;99.90;;;;;;4997497;28;20178;-84
2022/11/07 02:27:05;;;;;;;13.17;2.70;;;12.70;99.90;;;;;;4998916;28;20242;-83
2022/11/07 02:29:34;;;;;;;11.87;2.97;;;12.70;99.90;;;;;;5006547;28;20678;-82
2022/11/07 02:32:08;;;;;;;15.13;2.80;;;12.70;99.90;;;;;;5007632;28;20174;-82
2022/11/07 02:34:35;;;;;;;13.60;3.37;;;12.80;99.90;;;;;;5027802;28;20196;-80
2022/11/07 02:37:05;;;;;;;14.57;3.13;;;12.80;99.90;;;;;;5021767;28;20245;-86
2022/11/07 02:39:31;;;;;;;13.37;3.70;;;12.80;99.90;;;;;;4995793;28;20527;-83
2022/11/07 02:41:59;;;;;;;12.10;3.50;;;12.80;99.90;;;;;;4996527;28;20224;-83
2022/11/07 02:44:29;;;;;;;7.23;2.50;;;13.00;99.90;;;;;;4995212;28;20155;-85
2022/11/07 02:46:55;;;;;;;10.43;3.10;;;13.00;99.10;;;;;;5009499;28;20176;-82
2022/11/07 02:49:21;;;;;;;11.23;2.87;;;12.90;99.30;;;;;;4993861;28;20226;-86
2022/11/07 02:51:47;;;;;;;13.83;3.53;;;12.80;99.90;;;;;;4993704;28;20178;-86
2022/11/07 02:54:12;;;;;;;13.10;3.47;;;12.90;99.50;;;;;;4994693;28;20289;-80
2022/11/07 02:56:38;;;;;;;11.70;3.00;;;12.90;99.30;;;;;;5010195;28;20191;-83
2022/11/07 02:59:04;;;;;;;13.97;3.23;;;13.00;98.30;;;;;;5009721;28;20196;-84
2022/11/07 03:01:29;;;;;;;11.60;3.33;;;12.90;97.70;;;;;;4993417;28;20175;-87
2022/11/07 03:03:55;;;;;;;11.30;3.27;;;12.90;98.10;;;;;;4994459;28;20583;-85
2022/11/07 03:06:23;;;;;;;11.27;3.37;;;13.00;97.70;;;;;;4994850;28;20174;-82
2022/11/07 03:08:49;;;;;;;13.23;3.40;;;13.00;96.00;;;;;;5009777;28;20186;-83
2022/11/07 03:11:18;;;;;;;11.63;3.43;;;12.90;97.20;;;;;;5009324;28;20181;-83
2022/11/07 03:13:46;;;;;;;13.20;3.50;;;12.90;98.40;;;;;;4994948;28;20628;-84
2022/11/07 03:16:12;;;;;;;11.83;3.07;;;12.90;98.70;;;;;;5009944;28;20576;-83
2022/11/07 03:18:39;;;;;;;9.53;3.60;;;13.10;98.30;;;;;;4995052;28;20176;-87
2022/11/07 03:21:05;;;;;;;13.47;3.20;;;12.90;98.50;;;;;;4995530;28;20175;-87
2022/11/07 03:23:33;;;;;;;16.80;3.80;;;12.80;98.90;;;;;;5011131;28;20227;-86
2022/11/07 03:25:59;;;;;;;13.33;4.27;;;12.80;99.70;;;;;;4995359;28;20173;-81
2022/11/07 03:28:24;;;;;;;14.07;4.63;;;12.90;99.90;;;;;;5001280;28;20184;-85
2022/11/07 03:30:51;;;;;;;12.53;4.43;;;12.80;99.90;;;;;;5015589;28;20210;-85
2022/11/07 03:33:16;;;;;;;12.83;4.93;;;12.80;99.90;;;;;;5000951;28;20183;-85
2022/11/07 03:35:42;;;;;;;13.87;4.70;;;12.80;99.90;;;;;;4994954;28;20222;-85
2022/11/07 03:38:09;;;;;;;17.73;5.37;;;12.80;99.90;;;;;;4993790;28;20172;-86
2022/11/07 03:40:35;;;;;;;13.00;3.97;;;12.80;99.90;;;;;;5010817;28;20181;-81
2022/11/07 03:43:00;;;;;;;12.23;4.17;;;12.70;99.90;;;;;;5002792;28;20174;-81
2022/11/07 03:45:26;;;;;;;15.53;4.03;;;12.80;99.90;;;;;;5013045;28;20182;-83
2022/11/07 03:47:52;;;;;;;11.77;4.27;;;12.90;99.90;;;;;;4995373;28;20188;-83
2022/11/07 03:50:19;;;;;;;12.73;3.77;;;12.80;99.90;;;;;;4995781;28;20226;-86
2022/11/07 03:52:46;;;;;;;11.10;3.53;;;12.90;99.90;;;;;;4994269;28;20208;-85
2022/11/07 03:55:14;;;;;;;13.20;3.67;;;12.80;99.90;;;;;;4995882;28;20182;-82
2022/11/07 03:57:41;;;;;;;15.40;3.87;;;12.80;99.90;;;;;;4996909;28;20251;-82
2022/11/07 04:00:07;;;;;;;11.50;3.97;;;12.90;99.90;;;;;;4999654;28;20213;-82
2022/11/07 04:02:33;;;;;;;12.83;3.93;;;12.80;99.90;;;;;;5002488;28;20218;-86
2022/11/07 04:04:58;;;;;;;16.03;3.97;;;12.80;99.90;;;;;;5009195;28;20155;-83
2022/11/07 04:07:24;;;;;;;10.90;3.40;;;12.80;99.90;;;;;;5016804;28;20179;-80
2022/11/07 04:09:51;;;;;;;11.60;3.57;;;12.80;99.90;;;;;;5012968;28;20206;-83
2022/11/07 04:17:45;;;;;;;12.00;4.23;;;12.80;99.90;;;;;;5017117;28;20243;-82
2022/11/07 04:20:11;;;;;;;14.20;3.93;;;12.80;99.90;;;;;;5017279;28;20153;-85
2022/11/07 04:22:39;;;;;;;12.87;3.50;;;12.80;99.90;;;;;;5018366;28;20161;-82
2022/11/07 04:25:06;;;;;;;15.20;5.23;;;13.00;99.60;;;;;;5010127;28;20199;-81
2022/11/07 04:27:41;;;;;;;14.87;4.03;;;13.00;99.10;;;;;;5002728;28;20178;-86
2022/11/07 04:30:17;;;;;;;15.33;3.50;;;13.00;99.50;;;;;;5002784;28;20205;-80
2022/11/07 04:33:01;;;;;;;15.60;3.80;;;13.00;99.70;;;;;;5000209;28;20197;-87
2022/11/07 04:35:31;;;;;;;14.10;4.17;;;13.00;98.90;;;;;;5018770;28;20213;-82
2022/11/07 04:38:00;;;;;;;13.43;4.33;;;13.00;99.40;;;;;;5013004;28;20263;-82
2022/11/07 04:40:28;;;;;;;13.40;3.83;;;13.00;99.90;;;;;;4996768;28;20173;-84
2022/11/07 04:43:31;;;;;;;10.37;3.70;;;13.00;99.40;;;;;;5012861;28;20182;-85
2022/11/07 04:46:34;;;;;;;13.77;4.00;;;13.00;98.90;;;;;;4999046;28;20193;-82
2022/11/07 04:49:00;;;;;;;12.37;3.47;;;13.10;99.00;;;;;;4998098;28;20169;-85
2022/11/07 04:51:26;;;;;;;16.10;4.27;;;13.20;98.70;;;;;;5012827;28;20152;-82
2022/11/07 04:53:51;;;;;;;15.77;4.37;;;13.10;98.90;;;;;;5018553;28;20228;-81
2022/11/07 04:56:17;;;;;;;11.43;3.80;;;13.10;98.70;;;;;;5019702;28;20204;-82
2022/11/07 04:58:43;;;;;;;14.43;3.70;;;13.10;99.10;;;;;;5010003;28;20178;-82
2022/11/07 05:01:24;;;;;;;11.83;3.80;;;13.10;99.50;;;;;;5003513;28;20182;-83
2022/11/07 05:04:19;;;;;;;12.63;2.80;;;13.20;99.70;;;;;;4996624;28;20175;-87
2022/11/07 05:06:45;;;;;;;14.37;3.40;;;13.10;99.50;;;;;;4996641;28;20198;-85
2022/11/07 05:09:16;;;;;;;15.53;3.00;;;13.00;99.90;;;;;;4994458;28;20825;-84
2022/11/07 05:11:43;;;;;;;8.33;2.60;;;13.00;99.90;;;;;;4996891;28;20211;-86
2022/11/07 05:14:08;;;;;;;12.07;3.20;;;13.00;99.90;;;;;;4996916;28;20172;-83
2022/11/07 05:16:34;;;;;;;13.70;3.37;;;12.90;99.90;;;;;;4996091;28;20189;-80
2022/11/07 05:19:00;;;;;;;11.27;3.50;;;12.90;99.90;;;;;;4996431;28;20625;-80
2022/11/07 05:21:26;;;;;;;14.33;4.03;;;12.90;99.90;;;;;;4998133;28;20225;-83
2022/11/07 05:23:52;;;;;;;13.60;3.43;;;12.90;99.90;;;;;;5013023;28;20179;-83
2022/11/07 05:26:18;;;;;;;15.47;3.60;;;12.80;99.90;;;;;;5011978;28;20178;-82
2022/11/07 05:28:44;;;;;;;10.17;3.17;;;12.80;99.90;;;;;;5003591;28;20314;-81
2022/11/07 05:31:14;;;;;;;12.10;3.60;;;12.80;99.90;;;;;;5018022;28;20208;-81
2022/11/07 05:33:40;;;;;;;15.23;3.83;;;12.80;99.90;;;;;;5014937;28;20233;-82
2022/11/07 05:36:15;;;;;;;18.83;3.90;;;12.80;99.90;;;;;;5017662;28;20159;-78
2022/11/07 05:39:09;;;;;;;11.37;3.77;;;12.80;99.90;;;;;;5009927;28;20194;-84
2022/11/07 05:41:41;;;;;;;17.50;4.17;;;12.80;99.90;;;;;;5006157;28;20156;-84
2022/11/07 05:44:06;;;;;;;13.17;3.17;;;12.80;99.90;;;;;;5017192;28;20180;-81
2022/11/07 05:46:39;;;;;;;13.67;3.70;;;12.80;99.90;;;;;;5001138;28;20632;-81
2022/11/07 05:53:11;;;;;;;11.17;3.17;;;12.90;99.90;;;;;;4999923;28;20705;-85
2022/11/07 05:55:37;;;;;;;10.50;2.97;;;12.90;99.90;;;;;;5014274;28;20544;-85
2022/11/07 05:58:10;;;;;;;13.77;3.17;;;12.90;99.90;;;;;;4996533;28;20201;-87
2022/11/07 06:00:36;;;;;;;7.80;2.43;;;12.90;99.90;;;;;;4997267;28;20187;-85
2022/11/07 06:03:02;;;;;;;13.00;3.50;;;13.00;99.90;;;;;;5013485;28;20720;-81
2022/11/07 06:05:28;;;;;;;10.60;3.40;;;13.00;99.90;;;;;;5013697;28;20214;-83
2022/11/07 06:07:54;;;;;;;12.37;3.47;;;13.00;99.90;;;;;;4997158;28;20171;-81
2022/11/07 06:10:21;;;;;;;10.50;3.03;;;13.10;99.90;;;;;;4996587;28;20207;-85
2022/11/07 06:12:46;;;;;;;14.30;3.07;;;13.10;99.90;;;;;;4995940;28;20666;-84
2022/11/07 06:15:12;;;;;;;13.70;2.80;;;13.00;99.90;;;;;;4995516;28;20187;-83
2022/11/07 06:17:38;;;;;;;14.73;3.40;;;13.00;99.90;;;;;;5011598;28;20233;-85
2022/11/07 06:20:06;;;;;;;13.90;3.00;;;13.00;99.90;;;;;;4993658;28;20631;-84
2022/11/07 06:22:32;;;;;;;13.43;2.87;;;13.10;99.90;;;;;;4997676;28;20181;-84
2022/11/07 06:24:57;;;;;;;12.53;3.20;;;13.20;99.90;;;;;;4996289;28;20177;-83
2022/11/07 06:27:23;;;;;;;11.40;3.30;;;13.10;99.90;;;;;;4999287;28;20197;-83
2022/11/07 06:29:49;;;;;;;11.83;3.13;;;13.10;99.90;;;;;;5010232;28;20225;-85
2022/11/07 06:32:15;;;;;;;13.20;3.53;;;13.10;99.90;;;;;;4994858;28;20186;-83
2022/11/07 06:34:40;;;;;;;10.70;3.10;;;13.20;99.90;;;;;;4993458;28;20178;-84
2022/11/07 06:37:06;;;;;;;13.47;2.90;;;13.30;99.90;;;;;;4995075;28;20691;-87
2022/11/07 06:39:32;;;;;;;13.07;2.90;;;13.20;99.90;;;;;;4994723;28;20198;-80
2022/11/07 06:41:57;;;;;;;12.17;3.10;;;13.10;99.90;;;;;;4996417;28;20290;-83
2022/11/07 06:44:23;;;;;;;12.77;2.93;;;13.10;99.90;;;;;;5014860;28;20644;-85
2022/11/07 06:46:49;;;;;;;12.00;3.03;;;12.90;99.90;;;;;;5017207;28;20245;-85
2022/11/07 06:49:15;;;;;;;15.53;3.10;;;13.10;99.90;;;;;;5014646;28;20205;-83
2022/11/07 06:51:41;;;;;;;13.10;2.80;;;13.10;99.90;;;;;;5013359;28;20188;-83
2022/11/07 06:54:07;;;;;;;12.07;3.07;;;12.90;99.90;;;;;;5013163;28;20181;-83
2022/11/07 06:56:33;;;;;;;14.57;3.03;;;13.10;99.90;;;;;;5012177;28;20201;-82
2022/11/07 06:59:00;;;;;;;11.37;3.17;;;13.10;99.90;;;;;;5012535;28;20173;-82
2022/11/07 07:01:26;;;;;;;12.37;2.80;;;13.00;99.90;;;;;;5014667;28;20177;-84
2022/11/07 07:03:52;;;;;;;13.90;3.27;;;13.00;99.90;;;;;;5016460;28;20208;-82
2022/11/07 07:06:17;;;;;;;13.70;3.20;;;13.10;99.90;;;;;;5017672;28;20189;-86
2022/11/07 07:08:44;;;;;;;10.30;3.03;;;13.10;99.90;;;;;;5020021;28;20174;-85
2022/11/07 07:11:14;;;;;;;16.07;3.03;;;13.00;99.90;;;;;;5014994;28;20213;-81
2022/11/07 07:13:40;;;;;;;9.67;2.47;;;13.10;99.90;;;;;;5017629;28;20223;-83
2022/11/07 07:16:07;;;;;;;10.57;3.67;;;13.10;99.90;;;;;;5014871;28;20184;-81
2022/11/07 07:18:33;;;;;;;13.40;2.67;;;13.20;99.90;;;;;;5014933;28;20316;-80
2022/11/07 07:21:13;;;;;;;15.13;3.40;;;13.20;99.90;;;;;;5018223;28;20179;-81
2022/11/07 07:23:41;;;;;;;11.27;3.47;;;13.10;99.90;;;;;;5004217;28;20511;-80
2022/11/07 07:26:11;;;;;;;15.07;2.90;;;13.10;99.90;;;;;;4997908;28;20179;-82
2022/11/07 07:28:37;;;;;;;11.70;2.87;;;13.30;99.90;;;;;;5017090;28;20174;-81
2022/11/07 07:31:24;;;;;;;14.13;3.23;;;13.20;99.90;;;;;;5016292;28;20716;-80
2022/11/07 07:33:52;;;;;;;12.63;3.13;;;13.20;99.90;;;;;;5020436;28;20193;-83
2022/11/07 07:36:19;;;;;;;11.37;2.60;;;13.20;99.90;;;;;;5029245;28;20181;-81
2022/11/07 07:38:45;;;;;;;8.80;3.37;;;13.20;99.90;;;;;;5031755;28;20197;-81
2022/11/07 07:41:11;;;;;;;13.20;3.27;;;13.30;99.90;;;;;;5030734;28;20235;-79
2022/11/07 07:43:37;;;;;;;12.73;3.23;;;13.30;99.90;;;;;;5035762;28;20198;-80
2022/11/07 07:46:06;;;;;;;17.17;3.37;;;13.30;99.90;;;;;;5037283;28;20190;-81
2022/11/07 07:48:35;;;;;;;14.80;3.03;;;13.40;99.90;;;;;;5038259;28;20174;-82
2022/11/07 07:51:06;;;;;;;15.33;3.37;;;13.40;99.90;;;;;;5038844;28;20200;-84
2022/11/07 07:53:32;;;;;;;13.57;2.93;;;13.30;99.90;;;;;;5027092;28;20185;-82
2022/11/07 07:56:05;;;;;;;13.97;4.17;;;13.30;99.90;;;;;;5024397;28;20601;-81
2022/11/07 07:58:34;;;;;;;11.30;3.43;;;13.30;99.90;;;;;;5019279;28;20332;-82
2022/11/07 08:01:09;;;;;;;16.00;3.67;;;13.30;99.90;;;;;;5018937;28;20169;-81
2022/11/07 08:03:35;;;;;;;15.03;3.70;;;13.30;99.90;;;;;;5017111;28;20175;-81
2022/11/07 08:06:01;;;;;;;15.20;3.77;;;13.40;99.90;;;;;;5017729;28;20162;-80
2022/11/07 08:08:27;;;;;;;13.00;3.60;;;13.40;99.90;;;;;;5016293;28;20178;-82
2022/11/07 08:11:07;;;;;;;12.90;4.23;;;13.60;99.90;;;;;;5016820;28;20570;-82
2022/11/07 08:13:32;;;;;;;11.07;2.83;;;13.40;99.90;;;;;;5017116;28;20182;-80
2022/11/07 08:16:01;;;;;;;15.43;3.70;;;13.50;99.90;;;;;;5018007;28;20180;-81
2022/11/07 08:18:27;;;;;;;15.57;3.90;;;13.50;99.90;;;;;;5016818;28;20622;-81
2022/11/07 08:20:54;;;;;;;15.10;4.23;;;13.50;99.90;;;;;;5016109;28;20185;-82
2022/11/07 08:23:21;;;;;;;14.73;3.87;;;13.60;99.90;;;;;;5016242;28;20174;-81
2022/11/07 08:25:56;;;;;;;16.60;3.93;;;13.70;99.90;;;;;;5015662;28;20170;-82
2022/11/07 08:28:23;;;;;;;19.10;4.53;;;13.60;99.90;;;;;;5016270;28;20649;-81
2022/11/07 08:31:08;;;;;;;16.27;3.87;;;13.60;99.90;;;;;;5015215;28;20573;-82
2022/11/07 08:33:35;;;;;;;15.80;3.00;;;13.60;99.90;;;;;;5015713;28;20197;-80
2022/11/07 08:36:01;;;;;;;13.00;3.20;;;13.70;99.90;;;;;;5015799;28;20174;-81
2022/11/07 08:38:32;;;;;;;14.00;3.87;;;13.60;99.90;;;;;;5016157;28;20182;-83
2022/11/07 08:40:58;;;;;;;19.03;4.27;;;13.70;99.90;;;;;;4997364;28;20183;-82
2022/11/07 08:43:25;;;;;;;14.57;3.87;;;13.70;99.90;;;;;;4997016;28;20687;-81
2022/11/07 08:45:52;;;;;;;14.70;3.70;;;13.80;99.90;;;;;;4997720;28;20176;-81
2022/11/07 08:48:18;;;;;;;14.53;3.20;;;13.80;99.90;;;;;;4997739;28;20210;-81
2022/11/07 08:50:44;;;;;;;11.50;3.30;;;13.90;99.90;;;;;;4996113;28;20206;-81
2022/11/07 08:53:10;;;;;;;13.53;3.20;;;13.90;99.90;;;;;;4997444;28;20167;-82
2022/11/07 08:55:38;;;;;;;19.00;4.00;;;13.90;99.60;;;;;;4996296;28;20178;-82
2022/11/07 08:58:06;;;;;;;14.17;3.13;;;14.00;98.80;;;;;;4997814;28;20163;-80
2022/11/07 09:00:34;;;;;;;12.43;3.30;;;14.00;99.30;;;;;;4998118;28;20194;-82
2022/11/07 09:03:04;;;;;;;12.77;4.10;;;14.00;99.20;;;;;;4996292;28;20182;-81
2022/11/07 09:05:31;;;;;;;14.73;3.30;;;14.00;99.00;;;;;;4998579;28;20187;-80
2022/11/07 09:07:56;;;;;;;10.77;3.40;;;14.10;98.10;;;;;;4996427;28;20637;-82
2022/11/07 09:10:23;;;;;;;15.53;3.83;;;14.20;97.60;;;;;;5012804;28;20223;-82
2022/11/07 09:12:49;;;;;;;16.87;3.97;;;14.20;97.50;;;;;;5003061;28;20639;-81
2022/11/07 09:15:16;;;;;;;15.03;3.10;;;14.20;97.20;;;;;;5016279;28;20264;-82
2022/11/07 09:17:41;;;;;;;13.00;3.00;;;14.20;96.20;;;;;;5017539;28;20178;-83
2022/11/07 09:20:09;;;;;;;10.77;2.87;;;14.20;95.70;;;;;;5016237;28;20177;-83
2022/11/07 09:22:34;;;;;;;13.33;3.40;;;14.20;95.20;;;;;;5014979;28;20174;-84
2022/11/07 09:25:00;;;;;;;20.20;3.80;;;14.30;93.50;;;;;;5016627;28;20193;-81
2022/11/07 09:27:26;;;;;;;11.73;3.20;;;14.30;93.30;;;;;;5016271;28;20175;-83
2022/11/07 09:29:52;;;;;;;14.13;3.00;;;14.30;92.10;;;;;;5016210;28;20206;-80
2022/11/07 09:32:17;;;;;;;17.63;3.90;;;14.40;92.00;;;;;;5016676;28;20217;-84
2022/11/07 09:34:46;;;;;;;13.83;3.60;;;14.50;92.40;;;;;;5016371;28;20178;-83
2022/11/07 09:37:11;;;;;;;13.73;3.40;;;14.50;91.90;;;;;;5016692;28;20173;-82
2022/11/07 09:39:37;;;;;;;11.07;3.57;;;14.50;91.60;;;;;;5015811;28;20163;-83
2022/11/07 09:42:12;;;;;;;14.80;3.07;;;14.50;90.80;;;;;;5014802;28;20232;-82
2022/11/07 09:44:53;;;;;;;14.33;3.87;;;14.70;86.70;;;;;;5014009;28;20189;-83
2022/11/07 09:47:26;;;;;;;12.43;3.03;;;14.90;81.20;;;;;;5015591;28;20531;-83
2022/11/07 09:50:10;;;;;;;20.33;4.23;;;14.70;79.80;;;;;;5013925;28;20251;-84
2022/11/07 09:52:42;;;;;;;10.30;3.10;;;14.70;79.50;;;;;;5013724;28;20248;-82
2022/11/07 09:55:15;;;;;;;18.37;9.60;;;14.70;78.40;;;;;;5014085;28;20592;-83
2022/11/07 09:57:41;;;;;;;12.63;3.20;;;14.80;81.80;;;;;;5015445;28;20255;-84
2022/11/07 10:00:18;;;;;;;9.97;2.70;;;14.80;77.80;;;;;;5014494;28;20178;-81
2022/11/07 10:02:49;;;;;;;10.20;2.87;;;14.90;75.80;;;;;;5015380;28;20187;-81
2022/11/07 10:05:26;;;;;;;10.87;3.30;;;14.90;76.30;;;;;;5020519;28;20186;-82
2022/11/07 10:07:52;;;;;;;15.13;3.43;;;14.90;80.10;;;;;;5022362;28;20257;-81
2022/11/07 10:10:32;;;;;;;12.60;3.43;;;14.80;81.40;;;;;;5025984;28;20230;-80
2022/11/07 10:13:35;;;;;;;9.40;2.37;;;14.90;80.20;;;;;;5009646;28;20225;-80
2022/11/07 10:16:19;;;;;;;11.77;2.70;;;15.00;77.20;;;;;;5006172;28;20657;-82
2022/11/07 10:19:22;;;;;;;10.23;2.80;;;14.90;74.50;;;;;;4996291;28;20206;-82
2022/11/07 10:21:48;;;;;;;13.27;3.03;;;14.90;78.20;;;;;;4995471;28;20230;-83
2022/11/07 10:24:45;;;;;;;11.93;3.00;;;14.90;77.50;;;;;;4994824;28;20249;-80
2022/11/07 10:27:13;;;;;;;10.03;2.80;;;15.00;76.00;;;;;;4994815;28;20313;-82
2022/11/07 10:29:52;;;;;;;11.17;3.23;;;15.00;76.80;;;;;;4994435;28;20229;-82
2022/11/07 10:32:18;;;;;;;37.67;25.70;;;15.00;74.90;;;;;;4993629;28;20651;-81
2022/11/07 10:35:17;;;;;;;15.33;5.20;;;15.10;71.30;;;;;;4993951;28;20178;-82
2022/11/07 10:37:59;;;;;;;12.00;3.03;;;15.20;69.00;;;;;;4997645;28;20194;-82
2022/11/07 10:40:37;;;;;;;8.20;2.70;;;15.20;68.40;;;;;;5014158;28;20167;-80
2022/11/07 10:43:07;;;;;;;9.77;2.80;;;15.20;67.60;;;;;;5014946;28;20175;-80
2022/11/07 10:45:36;;;;;;;11.47;2.80;;;15.20;66.20;;;;;;5011220;28;20201;-80
2022/11/07 10:48:03;;;;;;;11.67;3.23;;;15.20;67.90;;;;;;4998784;28;20181;-82
2022/11/07 10:50:32;;;;;;;12.53;3.07;;;15.20;67.10;;;;;;4996174;28;20214;-82
2022/11/07 10:53:08;;;;;;;11.37;3.10;;;15.30;64.70;;;;;;4994464;28;20618;-82
2022/11/07 10:55:46;;;;;;;12.53;3.07;;;15.50;60.80;;;;;;4994300;28;20519;-81
2022/11/07 10:58:34;;;;;;;12.33;2.60;;;15.60;58.00;;;;;;4992986;28;20542;-83
2022/11/07 11:01:03;;;;;;;10.93;2.43;;;15.50;58.20;;;;;;4992829;28;20526;-82
2022/11/07 11:03:42;;;;;;;10.03;2.30;;;15.60;57.20;;;;;;4992416;28;20178;-84
2022/11/07 11:06:16;;;;;;;8.73;2.53;;;15.60;57.50;;;;;;4996334;28;20171;-83
2022/11/07 11:08:43;;;;;;;9.50;2.57;;;15.60;54.30;;;;;;5000023;28;20173;-82
2022/11/07 11:11:27;;;;;;;12.27;3.03;;;15.50;54.70;;;;;;5000864;28;20200;-82
2022/11/07 11:14:08;;;;;;;7.67;2.77;;;15.60;52.60;;;;;;4996718;28;20485;-81
2022/11/07 11:16:37;;;;;;;6.97;2.50;;;15.60;54.00;;;;;;5001170;28;20176;-82
2022/11/07 11:19:04;;;;;;;9.67;2.87;;;15.60;54.40;;;;;;4997762;28;20314;-81
2022/11/07 11:21:44;;;;;;;10.13;2.87;;;15.60;54.20;;;;;;5001323;28;20175;-81
2022/11/07 11:24:14;;;;;;;7.97;2.40;;;15.50;52.40;;;;;;5006079;28;20201;-81
2022/11/07 11:26:42;;;;;;;9.67;2.30;;;15.50;54.20;;;;;;5009275;28;20694;-81
2022/11/07 11:29:23;;;;;;;8.93;2.27;;;15.50;56.00;;;;;;5010435;28;20167;-83
2022/11/07 11:31:51;;;;;;;9.80;2.80;;;15.60;49.70;;;;;;5010723;28;20175;-82
2022/11/07 11:34:54;;;;;;;9.83;2.87;;;15.60;52.40;;;;;;5006570;28;20299;-82
2022/11/07 11:37:36;;;;;;;10.97;2.90;;;15.50;52.10;;;;;;5018013;28;20164;-81
2022/11/07 11:40:10;;;;;;;6.33;2.43;;;15.60;52.10;;;;;;5015926;28;20175;-83
2022/11/07 11:42:48;;;;;;;9.80;2.73;;;15.60;51.30;;;;;;5017055;28;20178;-82
2022/11/07 11:45:20;;;;;;;8.23;2.30;;;15.50;54.30;;;;;;5016129;28;20515;-81
2022/11/07 11:48:38;;;;;;;9.60;2.73;;;15.40;55.50;;;;;;5017500;28;20158;-83
2022/11/07 11:51:20;;;;;;;8.00;2.10;;;15.50;55.50;;;;;;4996431;28;20209;-81
2022/11/07 11:53:46;;;;;;;12.47;2.70;;;15.50;55.90;;;;;;5017348;28;20176;-81
2022/11/07 11:56:23;;;;;;;9.17;2.53;;;15.60;53.60;;;;;;5016474;28;20206;-82
2022/11/07 11:59:23;;;;;;;10.40;2.80;;;15.60;53.60;;;;;;5015359;28;20268;-81
2022/11/07 12:02:26;;;;;;;9.87;2.57;;;15.60;55.20;;;;;;5015217;28;20175;-82
2022/11/07 12:05:22;;;;;;;10.17;2.93;;;15.60;53.50;;;;;;5017963;28;20537;-83
2022/11/07 12:08:26;;;;;;;9.07;2.60;;;15.50;54.80;;;;;;5019542;28;20172;-83
2022/11/07 12:10:58;;;;;;;8.37;2.97;;;15.50;54.90;;;;;;5016391;28;20219;-81
2022/11/07 12:13:41;;;;;;;8.73;2.47;;;15.60;52.70;;;;;;5016774;28;20201;-82
2022/11/07 12:16:29;;;;;;;10.80;2.67;;;15.70;52.60;;;;;;5019685;28;20542;-80
2022/11/07 12:19:06;;;;;;;10.27;3.47;;;15.70;52.90;;;;;;5016233;28;20175;-82
2022/11/07 12:21:39;;;;;;;13.20;3.20;;;15.70;53.20;;;;;;5015297;28;20177;-82
2022/11/07 12:24:30;;;;;;;12.67;3.67;;;15.70;57.50;;;;;;5015996;28;20182;-82
2022/11/07 12:27:13;;;;;;;12.00;3.37;;;15.70;59.10;;;;;;5016263;28;20591;-81
2022/11/07 12:29:56;;;;;;;10.70;3.30;;;15.70;61.40;;;;;;5022504;28;20186;-81
2022/11/07 12:32:42;;;;;;;8.67;3.13;;;15.60;63.30;;;;;;5021245;28;20186;-81
2022/11/07 12:35:16;;;;;;;8.70;2.90;;;15.60;64.10;;;;;;5022875;28;20170;-81
2022/11/07 12:38:01;;;;;;;8.53;3.03;;;15.60;63.70;;;;;;5025142;28;20167;-81
2022/11/07 12:41:03;;;;;;;9.37;3.10;;;15.60;66.50;;;;;;5027334;28;20249;-82
2022/11/07 12:43:54;;;;;;;12.70;3.07;;;15.60;66.30;;;;;;5021632;28;20191;-83
2022/11/07 12:46:42;;;;;;;12.80;3.70;;;15.70;65.40;;;;;;5021144;28;20247;-81
2022/11/07 12:49:35;;;;;;;11.40;3.40;;;15.80;63.40;;;;;;5016063;28;20177;-80
2022/11/07 12:52:10;;;;;;;8.33;3.30;;;15.90;59.50;;;;;;5015346;28;20196;-81
2022/11/07 12:54:55;;;;;;;10.03;3.13;;;15.90;58.90;;;;;;5017552;28;20293;-81
2022/11/07 12:57:31;;;;;;;12.33;3.47;;;15.90;59.30;;;;;;5016831;28;20190;-82
2022/11/07 13:00:04;;;;;;;10.47;3.20;;;16.00;58.40;;;;;;5015668;28;20162;-81
2022/11/07 13:02:57;;;;;;;10.90;4.20;;;16.10;55.40;;;;;;5034740;28;20479;-80
2022/11/07 13:05:42;;;;;;;8.80;3.00;;;16.20;50.90;;;;;;5020940;28;20151;-81
2022/11/07 13:08:13;;;;;;;13.60;4.07;;;16.20;49.30;;;;;;5019431;28;20170;-81
2022/11/07 13:10:58;;;;;;;11.97;4.13;;;16.30;49.00;;;;;;5022409;28;20210;-81
2022/11/07 13:13:53;;;;;;;12.57;3.60;;;16.30;46.70;;;;;;5022660;28;20171;-79
2022/11/07 13:16:33;;;;;;;9.90;3.30;;;16.30;46.00;;;;;;5023369;28;20198;-81
2022/11/07 13:19:27;;;;;;;14.67;4.47;;;16.30;45.70;;;;;;5021351;28;20517;-82